Time;durP1;ratioP1;P1;durP2;ratioP2;P2;SDS_P1;SDS_P2;PMS_P1;PMS_P2;Temp;Humidity;BMP_temperature;BMP_pressure;BME280_temperature;BME280_humidity;BME280_pressure;Samples;Min_cycle;Max_cycle;Signal;HPM_P1;HPM_P2
2023/07/21 09:55:11;;;;;;;;;;;27.20;85.00;26.60;99137.00;;;;353251;27;76152;-79
2023/07/21 09:55:22;;;;;;;;;;;26.90;85.50;26.70;99135.00;;;;348590;27;83422;-79
2023/07/21 09:55:39;;;;;;;;;;;26.90;86.00;26.70;99142.00;;;;348142;27;85285;-80
2023/07/21 09:55:50;;;;;;;;;;;26.90;85.70;26.70;99143.00;;;;347117;28;83576;-80
2023/07/21 09:56:03;;;;;;;;;;;26.90;85.40;26.70;99139.00;;;;347054;28;85167;-80
2023/07/21 09:56:15;;;;;;;;;;;26.90;85.40;26.70;99140.00;;;;348458;27;83382;-80
2023/07/21 09:56:27;;;;;;;;;;;27.00;86.00;26.80;99141.00;;;;349862;27;83849;-80
2023/07/21 09:56:39;;;;;;;;;;;27.00;85.90;26.80;99141.00;;;;348558;27;83365;-80
2023/07/21 09:56:51;;;;;;;;;;;27.00;86.10;26.90;99137.00;;;;347196;28;83859;-80
2023/07/21 09:57:03;;;;;;;;;;;27.00;86.20;26.90;99140.00;;;;347128;28;83401;-80
2023/07/21 09:57:24;;;;;;;;;;;27.00;86.20;26.70;99140.00;;;;346964;28;85197;-80
2023/07/21 09:57:46;;;;;;;;;;;27.10;86.30;26.80;99135.00;;;;348588;27;82426;-82
2023/07/21 09:57:58;;;;;;;;;;;27.10;85.60;26.90;99144.00;;;;348479;27;83866;-82
2023/07/21 09:58:10;;;;;;;;;;;27.10;85.30;26.90;99135.00;;;;347176;28;83412;-83
2023/07/21 09:58:23;;;;;;;;;;;27.10;85.10;26.90;99133.00;;;;348521;27;85310;-82
2023/07/21 09:58:45;;;;;;;;;;;27.10;85.30;27.00;99144.00;;;;347186;28;83437;-81
2023/07/21 09:59:00;;;;;;;;;;;27.20;85.60;27.10;99134.00;;;;347165;28;84986;-82
2023/07/21 09:59:12;;;;;;;;;;;27.20;86.10;27.10;99135.00;;;;348534;27;82450;-81
2023/07/21 09:59:23;;;;;;;;;;;27.20;85.20;27.00;99140.00;;;;348541;27;84913;-80
2023/07/21 09:59:35;;;;;;;;;;;27.20;84.70;27.00;99137.00;;;;347177;28;83327;-80
2023/07/21 09:59:50;;;;;;;;;;;27.20;84.60;27.00;99144.00;;;;347129;28;83608;-82
2023/07/21 10:00:07;;;;;;;;;;;27.20;85.10;27.00;99144.00;;;;347098;28;83374;-82
2023/07/21 10:00:24;;;;;;;;;;;27.30;84.50;27.20;99134.00;;;;347118;28;85111;-80
2023/07/21 10:00:39;;;;;;;;;;;27.30;85.60;27.20;99147.00;;;;347189;28;83295;-80
2023/07/21 10:00:53;;;;;;;;;;;27.30;86.60;27.00;99141.00;;;;347155;28;84260;-81
2023/07/21 10:01:05;;;;;;;;;;;27.30;84.30;27.00;99140.00;;;;348425;27;83590;-81
2023/07/21 10:01:18;;;;;;;;;;;27.30;84.50;27.00;99139.00;;;;347079;28;85082;-80
2023/07/21 10:01:30;;;;;;;;;;;27.30;84.30;27.00;99141.00;;;;348636;27;82374;-81
2023/07/21 10:01:43;;;;;;;;;;;27.30;84.30;27.00;99133.00;;;;348536;27;85168;-81
2023/07/21 10:01:55;;;;;;;;;;;27.30;84.30;27.00;99133.00;;;;348553;27;82424;-81
2023/07/21 10:02:07;;;;;;;;;;;27.30;84.60;27.10;99128.00;;;;348348;27;84060;-79
2023/07/21 10:02:19;;;;;;;;;;;27.30;85.60;27.20;99140.00;;;;347085;28;82519;-80
2023/07/21 10:02:31;;;;;;;;;;;27.40;85.80;27.20;99138.00;;;;347050;28;84804;-80
2023/07/21 10:02:45;;;;;;;;;;;27.40;85.50;27.00;99137.00;;;;348271;27;83503;-81
2023/07/21 10:02:57;;;;;;;;;;;27.40;84.30;26.80;99145.00;;;;347200;28;83864;-81
2023/07/21 10:03:09;;;;;;;;;;;27.40;83.80;26.90;99136.00;;;;347064;28;83506;-81
2023/07/21 10:03:22;;;;;;;;;;;27.40;84.70;27.10;99138.00;;;;345730;28;85476;-81
2023/07/21 10:03:34;;;;;;;;;;;27.40;85.50;27.20;99142.00;;;;347230;28;83249;-81
2023/07/21 10:03:46;;;;;;;;;;;27.40;85.20;27.30;99141.00;;;;348471;27;85085;-80
2023/07/21 10:03:58;;;;;;;;;;;27.40;85.50;27.30;99135.00;;;;347109;28;83224;-80
2023/07/21 10:04:10;;;;;;;;;;;27.40;85.20;27.40;99139.00;;;;347079;28;84852;-81
2023/07/21 10:04:23;;;;;;;;;;;27.40;85.40;27.10;99138.00;;;;347106;28;83266;-81
2023/07/21 10:04:35;;;;;;;;;;;27.50;84.20;27.20;99141.00;;;;348537;27;84948;-80
2023/07/21 10:04:46;;;;;;;;;;;27.50;84.70;27.20;99135.00;;;;347179;28;83330;-81
2023/07/21 10:04:58;;;;;;;;;;;27.50;84.50;27.20;99138.00;;;;347106;28;85031;-81
2023/07/21 10:05:13;;;;;;;;;;;27.50;84.00;27.20;99138.00;;;;347119;28;82501;-81
2023/07/21 10:05:25;;;;;;;;;;;27.60;84.10;27.40;99133.00;;;;347160;28;84931;-81
2023/07/21 10:05:38;;;;;;;;;;;27.60;85.20;27.40;99145.00;;;;348620;27;83206;-81
2023/07/21 10:05:50;;;;;;;;;;;27.60;85.20;27.50;99143.00;;;;348396;27;84984;-81
2023/07/21 10:06:02;;;;;;;;;;;27.60;84.80;27.40;99135.00;;;;348256;27;83375;-81
2023/07/21 10:06:15;;;;;;;;;;;27.60;84.10;27.40;99146.00;;;;349178;27;85406;-80
2023/07/21 10:06:32;;;;;;;;;;;27.70;84.10;27.50;99139.00;;;;349743;27;83270;-81
2023/07/21 10:06:44;;;;;;;;;;;27.70;84.90;27.50;99135.00;;;;348530;27;85038;-81
2023/07/21 10:06:58;;;;;;;;;;;27.70;84.70;27.50;99135.00;;;;351132;27;83386;-81
2023/07/21 10:07:10;;;;;;;;;;;27.70;84.80;27.60;99144.00;;;;349793;27;85304;-80
2023/07/21 10:07:22;;;;;;;;;;;27.80;84.80;27.60;99147.00;;;;346323;28;83460;-80
2023/07/21 10:07:33;;;;;;;;;;;27.80;84.80;27.60;99146.00;;;;346575;28;84291;-80
2023/07/21 10:07:48;;;;;;;;;;;27.80;84.80;27.40;99133.00;;;;348548;27;82429;-80
2023/07/21 10:08:02;;;;;;;;;;;27.80;83.90;27.50;99142.00;;;;347086;28;85376;-81
2023/07/21 10:08:15;;;;;;;;;;;27.80;84.00;27.50;99136.00;;;;347151;28;82240;-81
2023/07/21 10:08:31;;;;;;;;;;;27.80;83.80;27.50;99134.00;;;;347701;27;85052;-82
2023/07/21 10:08:43;;;;;;;;;;;27.80;83.80;27.60;99137.00;;;;346601;28;83497;-81
2023/07/21 10:08:54;;;;;;;;;;;27.80;84.10;27.60;99131.00;;;;347075;28;84973;-81
2023/07/21 10:09:09;;;;;;;;;;;27.90;84.00;27.60;99138.00;;;;348521;27;83347;-81
2023/07/21 10:09:20;;;;;;;;;;;27.90;83.70;27.70;99135.00;;;;345276;28;84879;-81
2023/07/21 10:09:32;;;;;;;;;;;27.90;84.40;27.70;99141.00;;;;345688;28;83334;-80
2023/07/21 10:09:44;;;;;;;;;;;27.90;84.30;27.70;99141.00;;;;345704;28;83916;-80
2023/07/21 10:09:56;;;;;;;;;;;27.90;84.70;27.80;99144.00;;;;347160;28;83454;-81
2023/07/21 10:10:08;;;;;;;;;;;27.90;84.80;27.80;99142.00;;;;347102;28;84723;-81
2023/07/21 10:10:20;;;;;;;;;;;28.00;84.70;27.80;99148.00;;;;347111;28;83366;-81
2023/07/21 10:10:31;;;;;;;;;;;28.00;84.70;27.90;99144.00;;;;347085;28;85317;-81
2023/07/21 10:10:43;;;;;;;;;;;28.00;85.30;27.90;99141.00;;;;347173;28;82437;-81
2023/07/21 10:10:56;;;;;;;;;;;28.00;84.30;28.00;99137.00;;;;346493;27;85081;-80
2023/07/21 10:11:08;;;;;;;;;;;28.10;84.70;28.00;99142.00;;;;344840;28;83489;-81
2023/07/21 10:11:20;;;;;;;;;;;28.10;85.20;28.10;99140.00;;;;347137;28;85158;-82
2023/07/21 10:11:32;;;;;;;;;;;28.20;85.30;28.00;99143.00;;;;348593;27;83266;-81
2023/07/21 10:11:44;;;;;;;;;;;28.20;85.00;28.10;99133.00;;;;348454;27;83912;-81
2023/07/21 10:12:14;;;;;;;;;;;28.20;84.80;28.20;99149.00;;;;347175;28;83313;-81
2023/07/21 10:12:25;;;;;;;;;;;28.20;84.50;27.90;99144.00;;;;347253;27;85336;-81
2023/07/21 10:12:46;;;;;;;;;;;28.30;82.80;28.00;99147.00;;;;349324;27;83515;-82
2023/07/21 10:13:07;;;;;;;;;;;28.30;83.10;28.10;99145.00;;;;349976;27;85410;-82
2023/07/21 10:13:20;;;;;;;;;;;28.40;83.60;28.00;99140.00;;;;348497;27;83406;-82
2023/07/21 10:13:32;;;;;;;;;;;28.40;83.00;28.10;99132.00;;;;347641;27;84235;-82
2023/07/21 10:13:45;;;;;;;;;;;28.30;83.30;28.10;99139.00;;;;349884;27;83943;-81
2023/07/21 10:13:57;;;;;;;;;;;28.40;83.30;28.10;99142.00;;;;351381;27;84347;-81
2023/07/21 10:14:26;;;;;;;;;;;28.40;82.90;28.20;99139.00;;;;351412;27;82431;-81
2023/07/21 10:14:38;;;;;;;;;;;28.40;82.70;28.30;99149.00;;;;344859;27;85044;-85
2023/07/21 10:14:51;;;;;;;;;;;28.40;84.80;28.20;99144.00;;;;345115;28;83474;-83
2023/07/21 10:15:15;;;;;;;;;;;28.50;84.50;28.20;99145.00;;;;347006;28;84383;-82
2023/07/21 10:15:27;;;;;;;;;;;28.50;83.30;28.30;99144.00;;;;347575;27;83353;-82
2023/07/21 10:15:41;;;;;;;;;;;28.50;83.70;28.30;99148.00;;;;348285;27;86513;-83
2023/07/21 10:16:05;;;;;;;;;;;28.50;83.20;28.20;99142.00;;;;347199;28;83354;-83
2023/07/21 10:16:20;;;;;;;;;;;28.50;82.40;28.00;99142.00;;;;347113;28;84931;-83
2023/07/21 10:16:31;;;;;;;;;;;28.50;81.90;28.00;99147.00;;;;347163;28;83260;-82
2023/07/21 10:16:43;;;;;;;;;;;28.50;82.00;28.10;99137.00;;;;346774;27;87786;-82
2023/07/21 10:16:55;;;;;;;;;;;28.50;82.60;28.20;99144.00;;;;349849;27;83395;-82
2023/07/21 10:17:07;;;;;;;;;;;28.50;83.00;28.20;99147.00;;;;349856;27;84924;-83
2023/07/21 10:17:23;;;;;;;;;;;28.50;83.00;28.20;99144.00;;;;347197;28;82527;-82
2023/07/21 10:17:42;;;;;;;;;;;28.50;82.60;28.10;99141.00;;;;347042;28;86865;-83
2023/07/21 10:18:03;;;;;;;;;;;28.50;82.70;28.20;99147.00;;;;345751;28;83377;-83
2023/07/21 10:18:15;;;;;;;;;;;28.50;83.00;28.10;99137.00;;;;348396;27;85088;-83
2023/07/21 10:18:27;;;;;;;;;;;28.50;82.30;28.10;99146.00;;;;346998;28;83543;-82
2023/07/21 10:19:01;;;;;;;;;;;28.50;82.60;28.20;99140.00;;;;347041;28;85260;-82
2023/07/21 10:19:14;;;;;;;;;;;28.50;82.50;28.20;99147.00;;;;347166;28;83364;-83
2023/07/21 10:19:28;;;;;;;;;;;28.50;82.50;28.20;99144.00;;;;346606;27;85339;-83
2023/07/21 10:19:44;;;;;;;;;;;28.50;83.10;28.30;99136.00;;;;345656;28;83385;-83
2023/07/21 10:20:08;;;;;;;;;;;28.50;83.40;28.40;99146.00;;;;345548;28;86794;-83
2023/07/21 10:20:20;;;;;;;;;;;28.60;83.50;28.50;99144.00;;;;345736;28;83318;-83
2023/07/21 10:20:52;;;;;;;;;;;28.60;84.20;28.60;99147.00;;;;346922;28;87255;-84
2023/07/21 10:21:05;;;;;;;;;;;28.70;84.30;28.60;99140.00;;;;348760;27;82375;-84
2023/07/21 10:21:17;;;;;;;;;;;28.80;83.90;28.60;99139.00;;;;349800;27;85038;-84
2023/07/21 10:21:32;;;;;;;;;;;28.80;84.10;28.70;99141.00;;;;350023;27;83333;-85
2023/07/21 10:21:49;;;;;;;;;;;28.80;83.70;28.50;99141.00;;;;349847;27;84485;-84
2023/07/21 10:22:01;;;;;;;;;;;28.90;82.50;28.60;99141.00;;;;349964;27;83371;-82
2023/07/21 10:22:22;;;;;;;;;;;28.90;83.10;28.60;99144.00;;;;349821;27;85345;-85
2023/07/21 10:22:34;;;;;;;;;;;28.90;83.00;28.70;99145.00;;;;348486;27;83467;-85
2023/07/21 10:22:56;;;;;;;;;;;28.90;82.70;28.60;99146.00;;;;348471;27;84179;-85
2023/07/21 10:23:08;;;;;;;;;;;28.90;82.10;28.70;99139.00;;;;346656;27;83564;-85
2023/07/21 10:23:29;;;;;;;;;;;29.00;82.50;28.70;99138.00;;;;348307;27;85429;-84
2023/07/21 10:23:42;;;;;;;;;;;29.00;81.80;28.70;99134.00;;;;348487;27;83288;-85
2023/07/21 10:23:54;;;;;;;;;;;29.00;81.80;28.50;99138.00;;;;348354;27;88090;-84
2023/07/21 10:24:05;;;;;;;;;;;29.00;81.40;28.30;99139.00;;;;348478;27;83814;-85
2023/07/21 10:24:28;;;;;;;;;;;29.00;81.70;28.40;99137.00;;;;347049;28;83989;-84
2023/07/21 10:24:46;;;;;;;;;;;29.00;82.60;28.30;99137.00;;;;348608;27;82499;-85
2023/07/21 10:24:57;;;;;;;;;;;28.90;81.60;28.30;99140.00;;;;351031;27;84961;-83
2023/07/21 10:25:09;;;;;;;;;;;28.90;81.30;28.40;99140.00;;;;348533;27;83318;-83
2023/07/21 10:25:24;;;;;;;;;;;28.90;82.00;28.30;99140.00;;;;346909;28;86757;-83
2023/07/21 10:25:56;;;;;;;;;;;28.90;81.90;28.50;99144.00;;;;346810;27;83959;-83
2023/07/21 10:26:08;;;;;;;;;;;28.90;81.90;28.60;99150.00;;;;345634;28;85385;-83
2023/07/21 10:26:23;;;;;;;;;;;28.90;82.50;28.50;99147.00;;;;347021;28;83344;-83
2023/07/21 10:26:35;;;;;;;;;;;28.90;82.10;28.60;99144.00;;;;345581;28;85899;-82
2023/07/21 10:26:46;;;;;;;;;;;28.90;82.10;28.70;99144.00;;;;345761;28;83348;-83
2023/07/21 10:27:02;;;;;;;;;;;29.00;82.60;28.50;99147.00;;;;346426;28;84646;-82
2023/07/21 10:27:21;;;;;;;;;;;29.00;82.00;28.50;99136.00;;;;347099;28;83373;-83
2023/07/21 10:27:33;;;;;;;;;;;29.00;81.60;28.60;99142.00;;;;347578;27;85233;-83
2023/07/21 10:27:45;;;;;;;;;;;29.00;82.50;28.60;99135.00;;;;347082;28;82438;-83
2023/07/21 10:28:03;;;;;;;;;;;29.00;82.50;28.70;99138.00;;;;348240;27;83937;-83
2023/07/21 10:28:15;;;;;;;;;;;29.00;82.20;28.70;99138.00;;;;347132;28;83271;-83
2023/07/21 10:28:43;;;;;;;;;;;29.10;82.30;28.80;99137.00;;;;348333;27;84998;-82
2023/07/21 10:29:13;;;;;;;;;;;29.10;82.30;28.90;99138.00;;;;348542;27;83368;-82
2023/07/21 10:29:24;;;;;;;;;;;29.10;83.10;28.10;99141.00;;;;346959;28;85271;-83
2023/07/21 10:29:36;;;;;;;;;;;29.00;80.60;27.90;99136.00;;;;348608;27;83297;-83
2023/07/21 10:29:52;;;;;;;;;;;29.00;80.60;28.10;99139.00;;;;348344;27;85313;-82
2023/07/21 10:30:22;;;;;;;;;;;28.90;80.90;28.40;99146.00;;;;347128;28;83301;-84
2023/07/21 10:30:34;;;;;;;;;;;28.90;81.10;28.20;99139.00;;;;346948;28;87733;-91
2023/07/21 10:30:46;;;;;;;;;;;28.80;81.80;28.20;99149.00;;;;348549;27;82429;-84
2023/07/21 10:31:22;;;;;;;;;;;28.80;81.20;28.00;99144.00;;;;347106;28;85113;-84
2023/07/21 10:31:38;;;;;;;;;;;28.80;81.70;27.90;99142.00;;;;347364;27;82420;-84
2023/07/21 10:31:51;;;;;;;;;;;28.60;81.30;28.00;99139.00;;;;348438;27;84374;-84
2023/07/21 10:32:04;;;;;;;;;;;28.60;82.10;28.10;99141.00;;;;348583;27;83334;-85
2023/07/21 10:32:15;;;;;;;;;;;28.60;82.10;27.90;99138.00;;;;346966;28;84239;-83
2023/07/21 10:32:27;;;;;;;;;;;28.60;81.60;28.00;99138.00;;;;346996;28;83338;-83
2023/07/21 10:32:42;;;;;;;;;;;28.50;81.70;28.20;99140.00;;;;347024;28;85260;-83
2023/07/21 10:32:54;;;;;;;;;;;28.60;82.30;28.30;99142.00;;;;344429;28;83366;-84
2023/07/21 10:33:13;;;;;;;;;;;28.60;82.70;28.40;99135.00;;;;346991;28;83965;-83
2023/07/21 10:33:28;;;;;;;;;;;28.60;83.20;28.50;99135.00;;;;347014;28;83451;-84
2023/07/21 10:33:40;;;;;;;;;;;28.60;82.90;28.50;99142.00;;;;348403;27;85025;-83
2023/07/21 10:34:10;;;;;;;;;;;28.70;82.90;28.50;99143.00;;;;348567;27;83326;-83
2023/07/21 10:34:25;;;;;;;;;;;28.70;82.20;28.50;99145.00;;;;349732;27;85373;-83
2023/07/21 10:34:40;;;;;;;;;;;28.70;83.40;28.30;99139.00;;;;351367;27;83351;-83
2023/07/21 10:34:52;;;;;;;;;;;28.80;82.50;28.50;99139.00;;;;349794;27;85350;-82
2023/07/21 10:35:04;;;;;;;;;;;28.80;82.80;28.60;99137.00;;;;349974;27;83972;-83
2023/07/21 10:35:36;;;;;;;;;;;28.80;82.80;28.60;99137.00;;;;347071;28;84245;-83
2023/07/21 10:35:48;;;;;;;;;;;28.80;82.20;28.60;99143.00;;;;348086;27;82665;-83
2023/07/21 10:36:12;;;;;;;;;;;28.90;82.20;28.50;99147.00;;;;348417;27;85018;-83
2023/07/21 10:36:24;;;;;;;;;;;28.90;82.90;28.60;99148.00;;;;348443;27;83347;-83
2023/07/21 10:36:51;;;;;;;;;;;28.90;82.90;28.60;99143.00;;;;348363;27;85527;-83
2023/07/21 10:37:04;;;;;;;;;;;28.90;82.50;28.70;99142.00;;;;347050;28;83420;-83
2023/07/21 10:37:16;;;;;;;;;;;29.00;82.50;28.80;99144.00;;;;345685;28;84556;-83
2023/07/21 10:37:28;;;;;;;;;;;29.00;82.70;28.80;99143.00;;;;347029;28;83419;-83
2023/07/21 10:37:39;;;;;;;;;;;29.00;82.80;28.80;99138.00;;;;345593;28;85574;-83
2023/07/21 10:38:13;;;;;;;;;;;29.10;82.20;28.80;99152.00;;;;347129;28;83434;-83
2023/07/21 10:38:27;;;;;;;;;;;29.10;82.20;28.80;99145.00;;;;346946;28;85133;-83
2023/07/21 10:38:40;;;;;;;;;;;29.10;82.30;28.90;99138.00;;;;347169;28;83370;-83
2023/07/21 10:38:59;;;;;;;;;;;29.20;83.10;28.90;99146.00;;;;345603;28;85362;-83
2023/07/21 10:39:12;;;;;;;;;;;29.20;82.80;28.90;99144.00;;;;346938;28;83503;-83
2023/07/21 10:39:26;;;;;;;;;;;29.20;82.10;28.80;99160.00;;;;345625;28;84909;-83
2023/07/21 10:39:42;;;;;;;;;;;29.20;81.40;28.80;99150.00;;;;345778;28;83318;-83
2023/07/21 10:39:54;;;;;;;;;;;29.20;82.00;28.80;99154.00;;;;347046;28;84239;-83
2023/07/21 10:40:07;;;;;;;;;;;29.20;82.10;28.80;99153.00;;;;347171;28;83283;-83
2023/07/21 10:40:19;;;;;;;;;;;29.20;81.90;28.80;99152.00;;;;349868;27;84986;-83
2023/07/21 10:40:31;;;;;;;;;;;29.20;82.20;28.70;99150.00;;;;348478;27;83545;-83
2023/07/21 10:40:43;;;;;;;;;;;29.10;82.00;28.60;99151.00;;;;348444;27;84950;-83
2023/07/21 10:40:55;;;;;;;;;;;29.10;81.30;28.60;99148.00;;;;348464;27;83441;-82
2023/07/21 10:41:07;;;;;;;;;;;29.10;81.60;28.60;99147.00;;;;349644;27;87409;-82
2023/07/21 10:41:19;;;;;;;;;;;29.10;82.20;28.50;99147.00;;;;348545;27;83152;-83
2023/07/21 10:41:33;;;;;;;;;;;29.10;82.00;28.50;99147.00;;;;348390;27;85161;-82
2023/07/21 10:41:56;;;;;;;;;;;29.10;81.80;28.50;99144.00;;;;347003;28;83364;-82
2023/07/21 10:42:09;;;;;;;;;;;29.00;82.00;28.40;99154.00;;;;347065;28;84998;-83
2023/07/21 10:42:21;;;;;;;;;;;29.00;81.20;28.50;99156.00;;;;347151;28;83339;-82
2023/07/21 10:42:33;;;;;;;;;;;29.00;81.50;28.40;99147.00;;;;348243;27;88111;-83
2023/07/21 10:42:45;;;;;;;;;;;28.90;81.40;28.50;99148.00;;;;348435;27;82536;-82
2023/07/21 10:42:57;;;;;;;;;;;28.90;81.90;28.60;99160.00;;;;347036;28;85359;-83
2023/07/21 10:43:09;;;;;;;;;;;28.90;82.10;28.50;99159.00;;;;345660;28;82627;-82
2023/07/21 10:43:21;;;;;;;;;;;28.90;82.20;28.60;99163.00;;;;345639;28;85020;-83
2023/07/21 10:43:32;;;;;;;;;;;28.90;82.30;28.50;99154.00;;;;347106;28;83533;-83
2023/07/21 10:43:44;;;;;;;;;;;28.90;82.20;28.40;99154.00;;;;346856;28;85311;-83
2023/07/21 10:43:56;;;;;;;;;;;28.90;82.20;28.30;99151.00;;;;347129;28;83386;-82
2023/07/21 10:44:11;;;;;;;;;;;28.90;82.00;28.50;99162.00;;;;346995;28;84327;-82
2023/07/21 10:44:23;;;;;;;;;;;28.90;82.20;28.50;99158.00;;;;347071;28;83329;-83
2023/07/21 10:44:39;;;;;;;;;;;28.90;82.00;28.20;99155.00;;;;345573;28;85094;-83
2023/07/21 10:44:50;;;;;;;;;;;28.90;81.40;27.90;99152.00;;;;345768;28;83297;-83
2023/07/21 10:45:07;;;;;;;;;;;28.80;81.20;28.00;99153.00;;;;346513;28;85286;-83
2023/07/21 10:45:19;;;;;;;;;;;28.70;81.30;28.20;99153.00;;;;348552;27;83312;-83
2023/07/21 10:45:31;;;;;;;;;;;28.70;81.90;28.30;99158.00;;;;346939;28;84972;-83
2023/07/21 10:45:49;;;;;;;;;;;28.70;82.00;28.20;99148.00;;;;345708;28;83308;-83
2023/07/21 10:46:04;;;;;;;;;;;28.70;81.80;28.20;99161.00;;;;346991;28;84780;-83
2023/07/21 10:46:16;;;;;;;;;;;28.60;81.80;28.20;99151.00;;;;347176;28;82321;-83
2023/07/21 10:46:37;;;;;;;;;;;28.60;81.90;28.10;99160.00;;;;346906;28;86395;-83
2023/07/21 10:46:50;;;;;;;;;;;28.60;82.40;28.10;99158.00;;;;348527;27;83317;-82
2023/07/21 10:47:03;;;;;;;;;;;28.60;82.50;28.20;99164.00;;;;349764;27;85004;-82
2023/07/21 10:47:20;;;;;;;;;;;28.60;82.70;28.10;99160.00;;;;348606;27;82498;-82
2023/07/21 10:47:32;;;;;;;;;;;28.60;82.70;28.10;99163.00;;;;347006;28;85047;-83
2023/07/21 10:47:44;;;;;;;;;;;28.60;82.40;28.20;99161.00;;;;345619;28;83278;-82
2023/07/21 10:47:56;;;;;;;;;;;28.50;82.50;28.20;99151.00;;;;345582;28;83999;-82
2023/07/21 10:48:14;;;;;;;;;;;28.60;82.60;28.20;99164.00;;;;347061;28;83960;-82
2023/07/21 10:48:27;;;;;;;;;;;28.60;82.60;28.30;99160.00;;;;347775;27;85556;-82
2023/07/21 10:48:39;;;;;;;;;;;28.60;82.40;28.10;99164.00;;;;348483;27;82485;-82
2023/07/21 10:48:53;;;;;;;;;;;28.50;82.10;28.20;99163.00;;;;347012;28;85101;-82
2023/07/21 10:49:06;;;;;;;;;;;28.50;82.50;28.30;99158.00;;;;347116;28;82453;-82
2023/07/21 10:49:18;;;;;;;;;;;28.50;83.00;28.30;99158.00;;;;347050;28;85031;-82
2023/07/21 10:49:30;;;;;;;;;;;28.50;82.60;28.20;99164.00;;;;347081;28;83450;-83
2023/07/21 10:49:42;;;;;;;;;;;28.50;82.20;28.20;99157.00;;;;346918;28;84814;-82
2023/07/21 10:49:53;;;;;;;;;;;28.50;82.00;28.20;99159.00;;;;345622;28;83473;-83
2023/07/21 10:50:06;;;;;;;;;;;28.50;82.30;28.10;99151.00;;;;347104;28;82785;-82
2023/07/21 10:50:18;;;;;;;;;;;28.50;82.50;28.10;99156.00;;;;347125;28;83415;-83
2023/07/21 10:50:30;;;;;;;;;;;28.50;82.40;28.20;99146.00;;;;345600;28;85056;-82
2023/07/21 10:50:54;;;;;;;;;;;28.50;82.40;28.40;99150.00;;;;345657;28;83428;-83
2023/07/21 10:51:05;;;;;;;;;;;28.60;83.00;28.40;99153.00;;;;345563;28;85108;-82
2023/07/21 10:51:17;;;;;;;;;;;28.60;83.90;28.40;99148.00;;;;347191;28;83315;-83
2023/07/21 10:51:29;;;;;;;;;;;28.70;84.30;28.30;99153.00;;;;347064;28;84805;-83
2023/07/21 10:51:41;;;;;;;;;;;28.70;82.80;28.40;99157.00;;;;345626;28;83506;-83
2023/07/21 10:51:53;;;;;;;;;;;28.70;83.10;28.40;99152.00;;;;345671;28;85040;-83
2023/07/21 10:52:05;;;;;;;;;;;28.70;83.20;28.40;99156.00;;;;345765;28;82432;-83
2023/07/21 10:52:17;;;;;;;;;;;28.70;82.80;28.40;99154.00;;;;348328;27;87007;-83
2023/07/21 10:52:29;;;;;;;;;;;28.80;83.20;28.50;99153.00;;;;345679;28;83425;-83
2023/07/21 10:52:41;;;;;;;;;;;28.80;83.00;28.40;99151.00;;;;345480;28;85023;-83
2023/07/21 10:52:53;;;;;;;;;;;28.80;83.40;28.50;99152.00;;;;344376;28;83340;-83
2023/07/21 10:53:05;;;;;;;;;;;28.80;82.70;28.40;99159.00;;;;344260;28;84501;-82
2023/07/21 10:53:18;;;;;;;;;;;28.80;82.60;28.50;99154.00;;;;344403;28;83339;-83
2023/07/21 10:53:29;;;;;;;;;;;28.80;82.40;28.40;99155.00;;;;344283;28;85060;-82
2023/07/21 10:53:41;;;;;;;;;;;28.80;82.80;28.40;99147.00;;;;344146;28;82540;-82
2023/07/21 10:53:53;;;;;;;;;;;28.80;82.50;28.50;99153.00;;;;347010;28;84996;-83
2023/07/21 10:54:05;;;;;;;;;;;28.80;82.60;28.40;99160.00;;;;345770;28;83337;-82
2023/07/21 10:54:17;;;;;;;;;;;28.80;82.30;28.50;99158.00;;;;345565;28;85091;-82
2023/07/21 10:54:29;;;;;;;;;;;28.80;83.00;28.50;99158.00;;;;347779;27;82394;-82
2023/07/21 10:54:40;;;;;;;;;;;28.80;82.50;28.50;99159.00;;;;346947;28;84972;-83
2023/07/21 10:54:56;;;;;;;;;;;28.80;82.60;28.60;99159.00;;;;349903;27;83321;-83
2023/07/21 10:55:08;;;;;;;;;;;28.80;82.90;28.50;99158.00;;;;349769;27;84348;-82
2023/07/21 10:55:19;;;;;;;;;;;28.80;82.70;28.40;99158.00;;;;349941;27;82388;-83
2023/07/21 10:55:31;;;;;;;;;;;28.80;82.60;28.50;99161.00;;;;349861;27;84632;-82
2023/07/21 10:55:43;;;;;;;;;;;28.80;82.70;28.50;99160.00;;;;347002;28;83438;-82
2023/07/21 10:55:55;;;;;;;;;;;28.80;82.70;28.50;99170.00;;;;346876;28;84821;-83
2023/07/21 10:56:07;;;;;;;;;;;28.80;83.00;28.40;99158.00;;;;348533;27;83303;-83
2023/07/21 10:56:19;;;;;;;;;;;28.80;82.50;28.40;99160.00;;;;348382;27;84339;-83
2023/07/21 10:56:51;;;;;;;;;;;28.80;82.40;28.30;99164.00;;;;348521;27;82478;-83
2023/07/21 10:57:03;;;;;;;;;;;28.80;82.20;28.30;99158.00;;;;346988;28;85352;-83
2023/07/21 10:57:15;;;;;;;;;;;28.70;83.10;28.30;99163.00;;;;347132;28;83407;-82
2023/07/21 10:57:34;;;;;;;;;;;28.70;83.20;28.30;99154.00;;;;348369;27;83976;-83
2023/07/21 10:57:45;;;;;;;;;;;28.70;82.30;28.40;99157.00;;;;348468;27;83437;-83
2023/07/21 10:57:57;;;;;;;;;;;28.70;82.40;28.20;99159.00;;;;348382;27;83997;-83
2023/07/21 10:58:09;;;;;;;;;;;28.70;81.90;28.20;99157.00;;;;348451;27;83499;-82
2023/07/21 10:58:20;;;;;;;;;;;28.60;82.00;28.30;99159.00;;;;346984;28;85345;-82
2023/07/21 10:58:33;;;;;;;;;;;28.60;82.20;28.30;99163.00;;;;347078;28;83822;-83
2023/07/21 10:58:45;;;;;;;;;;;28.60;82.00;28.30;99161.00;;;;346975;28;85203;-82
2023/07/21 10:58:56;;;;;;;;;;;28.60;82.20;28.20;99156.00;;;;347094;28;82489;-82
2023/07/21 10:59:09;;;;;;;;;;;28.60;82.20;28.30;99159.00;;;;345576;28;85343;-82
2023/07/21 10:59:24;;;;;;;;;;;28.60;82.40;28.20;99157.00;;;;347143;28;82578;-83
2023/07/21 10:59:36;;;;;;;;;;;28.60;82.30;28.00;99157.00;;;;348216;27;85378;-83
2023/07/21 10:59:48;;;;;;;;;;;28.60;82.40;28.00;99157.00;;;;348434;27;84846;-82
2023/07/21 11:00:00;;;;;;;;;;;28.50;82.30;28.20;99156.00;;;;346986;28;84806;-82
2023/07/21 11:00:13;;;;;;;;;;;28.50;82.80;28.20;99158.00;;;;348575;27;82372;-83
2023/07/21 11:00:25;;;;;;;;;;;28.50;82.80;28.20;99164.00;;;;348331;27;84975;-83
2023/07/21 11:00:47;;;;;;;;;;;28.50;82.80;28.30;99153.00;;;;347094;28;83385;-82
2023/07/21 11:00:59;;;;;;;;;;;28.50;83.00;28.30;99151.00;;;;346945;28;85239;-82
2023/07/21 11:01:11;;;;;;;;;;;28.50;83.30;28.20;99162.00;;;;347111;28;83409;-83
2023/07/21 11:01:23;;;;;;;;;;;28.50;82.90;28.10;99161.00;;;;347000;28;84244;-82
2023/07/21 11:01:43;;;;;;;;;;;28.50;82.50;28.20;99158.00;;;;347105;28;83344;-83
2023/07/21 11:01:55;;;;;;;;;;;28.50;82.80;28.30;99161.00;;;;347152;27;84643;-83
2023/07/21 11:02:07;;;;;;;;;;;28.50;83.30;28.40;99164.00;;;;347258;27;83379;-83
2023/07/21 11:02:23;;;;;;;;;;;28.50;83.50;28.40;99155.00;;;;348434;27;83835;-83
2023/07/21 11:02:38;;;;;;;;;;;28.50;83.40;28.40;99160.00;;;;348475;27;82463;-82
2023/07/21 11:02:54;;;;;;;;;;;28.50;82.80;28.40;99166.00;;;;348368;27;84975;-83
2023/07/21 11:03:06;;;;;;;;;;;28.60;82.80;28.50;99159.00;;;;348471;27;83455;-82
2023/07/21 11:03:18;;;;;;;;;;;28.60;82.80;28.50;99167.00;;;;348361;27;85446;-82
2023/07/21 11:03:30;;;;;;;;;;;28.60;82.90;28.40;99159.00;;;;348514;27;83343;-82
2023/07/21 11:03:43;;;;;;;;;;;28.60;82.90;28.30;99160.00;;;;345538;28;85075;-82
2023/07/21 11:03:55;;;;;;;;;;;28.60;83.10;28.30;99154.00;;;;345821;28;83344;-83
2023/07/21 11:04:07;;;;;;;;;;;28.60;83.10;28.30;99157.00;;;;347070;28;84979;-83
2023/07/21 11:04:20;;;;;;;;;;;28.60;82.80;28.40;99164.00;;;;348339;27;83383;-84
2023/07/21 11:04:32;;;;;;;;;;;28.60;83.00;28.40;99153.00;;;;349767;27;84589;-83
2023/07/21 11:04:44;;;;;;;;;;;28.60;83.10;28.50;99152.00;;;;349840;27;83426;-83
2023/07/21 11:04:59;;;;;;;;;;;28.70;83.40;28.50;99142.00;;;;349734;27;85123;-83
2023/07/21 11:05:11;;;;;;;;;;;28.70;83.80;28.50;99149.00;;;;348515;27;83332;-86
2023/07/21 11:05:23;;;;;;;;;;;28.70;83.50;28.60;99147.00;;;;348315;27;84831;-86
2023/07/21 11:05:36;;;;;;;;;;;28.80;83.50;28.70;99150.00;;;;348587;27;82347;-86
2023/07/21 11:05:47;;;;;;;;;;;28.80;83.40;28.60;99149.00;;;;349653;27;87624;-86